createdAt,value
2023-04-10T00:01:36.384Z,16.12
2023-04-10T00:04:05.060Z,16.12
2023-04-10T00:06:33.728Z,16.13
2023-04-10T00:09:01.963Z,16.14
2023-04-10T00:11:31.043Z,16.12
2023-04-10T00:13:59.265Z,16.12
2023-04-10T00:16:27.686Z,16.11
2023-04-10T00:18:57.180Z,16.12
2023-04-10T00:21:25.270Z,16.11
2023-04-10T00:23:53.526Z,16.13
2023-04-10T00:26:23.922Z,16.16
2023-04-10T00:28:52.017Z,16.17
2023-04-10T00:31:20.212Z,16.17
2023-04-10T00:33:49.505Z,16.20
2023-04-10T00:36:20.007Z,16.13
2023-04-10T00:38:49.864Z,16.17
2023-04-10T00:41:19.034Z,16.20
2023-04-10T00:43:47.080Z,16.20
2023-04-10T00:46:15.390Z,16.22
2023-04-10T00:48:43.684Z,16.27
2023-04-10T00:51:13.717Z,16.20
2023-04-10T00:53:43.369Z,16.22
2023-04-10T00:56:11.493Z,16.23
2023-04-10T00:58:39.945Z,16.21
2023-04-10T01:01:08.927Z,16.19
2023-04-10T01:03:37.852Z,16.16
2023-04-10T01:06:13.889Z,16.15
2023-04-10T01:08:54.805Z,16.13
2023-04-10T01:11:31.075Z,16.13
2023-04-10T01:14:07.586Z,16.08
2023-04-10T01:16:44.520Z,16.10
2023-04-10T01:19:26.137Z,16.06
2023-04-10T01:21:56.183Z,16.07
2023-04-10T01:24:43.235Z,16.06
2023-04-10T01:27:18.746Z,16.03
2023-04-10T01:29:57.830Z,16.02
2023-04-10T01:32:26.857Z,16.01
2023-04-10T01:34:58.773Z,16.01
2023-04-10T01:37:36.439Z,15.96
2023-04-10T01:40:07.384Z,15.98
2023-04-10T01:42:40.402Z,15.96
2023-04-10T01:45:13.638Z,15.95
2023-04-10T01:47:41.807Z,15.95
2023-04-10T01:50:11.271Z,15.95
2023-04-10T01:52:39.591Z,15.94
2023-04-10T01:55:10.296Z,15.92
2023-04-10T01:57:38.438Z,15.90
2023-04-10T02:00:07.885Z,15.89
2023-04-10T02:02:38.726Z,15.93
2023-04-10T02:05:07.529Z,15.90
2023-04-10T02:07:46.718Z,15.89
2023-04-10T02:10:21.507Z,15.90
2023-04-10T02:12:55.772Z,15.87
2023-04-10T02:15:25.488Z,15.84
2023-04-10T02:17:57.493Z,15.87
2023-04-10T02:20:26.722Z,15.90
2023-04-10T02:22:55.742Z,15.89
2023-04-10T02:25:23.898Z,15.89
2023-04-10T02:27:52.026Z,15.90
2023-04-10T02:30:20.172Z,15.94
2023-04-10T02:32:48.436Z,15.93
2023-04-10T02:35:18.240Z,15.95
2023-04-10T02:37:47.747Z,15.94
2023-04-10T02:40:15.888Z,15.98
2023-04-10T02:42:44.231Z,15.96
2023-04-10T02:45:12.840Z,15.98
2023-04-10T02:47:41.557Z,15.98
2023-04-10T02:50:10.982Z,16.00
2023-04-10T02:52:40.861Z,15.99
2023-04-10T02:55:09.474Z,15.98
2023-04-10T02:57:37.637Z,15.98
2023-04-10T03:00:06.646Z,15.97
2023-04-10T03:02:40.053Z,16.00
2023-04-10T03:05:09.569Z,15.99
2023-04-10T03:07:38.443Z,16.01
2023-04-10T03:10:09.572Z,16.01
2023-04-10T03:12:37.705Z,16.03
2023-04-10T03:15:08.131Z,16.04
2023-04-10T03:17:36.317Z,16.06
2023-04-10T03:20:04.885Z,16.07
2023-04-10T03:22:33.231Z,16.08
2023-04-10T03:25:01.700Z,16.09
2023-04-10T03:27:35.175Z,16.09
2023-04-10T03:30:04.005Z,16.07
2023-04-10T03:32:32.466Z,16.08
2023-04-10T03:35:00.859Z,16.08
2023-04-10T03:37:32.223Z,16.08
2023-04-10T03:40:00.583Z,16.09
2023-04-10T03:42:28.724Z,16.08
2023-04-10T03:44:58.696Z,16.07
2023-04-10T03:47:27.473Z,16.09
2023-04-10T03:49:56.542Z,16.10
2023-04-10T03:52:25.297Z,16.09
2023-04-10T03:54:53.779Z,16.09
2023-04-10T03:57:21.972Z,16.11
2023-04-10T03:59:51.955Z,16.11
2023-04-10T04:02:22.974Z,16.12
2023-04-10T04:04:51.724Z,16.14
2023-04-10T04:07:20.003Z,16.18
2023-04-10T04:09:50.265Z,16.19
2023-04-10T04:12:18.218Z,16.20
2023-04-10T04:14:46.659Z,16.21
2023-04-10T04:17:15.233Z,16.27
2023-04-10T04:19:44.784Z,16.29
2023-04-10T04:22:13.548Z,16.29
2023-04-10T04:24:41.724Z,16.30
2023-04-10T04:27:10.261Z,16.30
2023-04-10T04:29:39.921Z,16.32
2023-04-10T04:32:17.465Z,16.30
2023-04-10T04:34:48.666Z,16.28
2023-04-10T04:37:17.442Z,16.24
2023-04-10T04:39:46.002Z,16.23
2023-04-10T04:42:14.154Z,16.20
2023-04-10T04:44:42.231Z,16.20
2023-04-10T04:47:10.662Z,16.19
2023-04-10T04:49:40.931Z,16.15
2023-04-10T04:52:54.047Z,16.12
2023-04-10T04:55:27.444Z,16.10
2023-04-10T04:58:19.956Z,16.10
2023-04-10T05:00:49.201Z,16.10
2023-04-10T05:03:18.052Z,16.10
2023-04-10T05:05:47.653Z,16.12
2023-04-10T05:08:16.517Z,16.09
2023-04-10T05:10:47.084Z,16.09
2023-04-10T05:13:16.046Z,16.08
2023-04-10T05:15:45.005Z,16.12
2023-04-10T05:18:14.278Z,16.12
2023-04-10T05:20:45.558Z,16.12
2023-04-10T05:23:14.243Z,16.13
2023-04-10T05:25:42.478Z,16.13
2023-04-10T05:28:12.301Z,16.11
2023-04-10T05:30:40.558Z,16.09
2023-04-10T05:33:09.086Z,16.12
2023-04-10T05:35:37.496Z,16.12
2023-04-10T05:38:05.578Z,16.14
2023-04-10T05:40:33.786Z,16.11
2023-04-10T05:43:02.099Z,16.11
2023-04-10T05:45:31.562Z,16.10
2023-04-10T05:47:59.587Z,16.13
2023-04-10T05:50:28.687Z,16.13
2023-04-10T05:52:58.676Z,16.14
2023-04-10T05:55:26.616Z,16.17
2023-04-10T05:57:54.678Z,16.18
2023-04-10T06:00:22.658Z,16.18
2023-04-10T06:02:52.812Z,16.25
2023-04-10T06:05:21.834Z,16.26
2023-04-10T06:07:49.966Z,16.22
2023-04-10T06:10:18.313Z,16.20
2023-04-10T06:12:47.026Z,16.21
2023-04-10T06:15:15.033Z,16.26
2023-04-10T06:17:44.479Z,16.20
2023-04-10T06:20:14.560Z,16.21
2023-04-10T06:22:42.695Z,16.24
2023-04-10T06:25:11.591Z,16.22
2023-04-10T06:27:39.980Z,16.22
2023-04-10T06:30:09.988Z,16.22
2023-04-10T06:32:38.649Z,16.22
2023-04-10T06:35:07.951Z,16.22
2023-04-10T06:37:37.652Z,16.21
2023-04-10T06:40:08.855Z,16.12
2023-04-10T06:42:37.824Z,16.03
2023-04-10T06:45:06.994Z,15.93
2023-04-10T06:47:35.818Z,15.83
2023-04-10T06:50:04.296Z,15.76
2023-04-10T06:52:33.996Z,15.73
2023-04-10T06:55:03.592Z,15.66
2023-04-10T06:57:33.003Z,15.63
2023-04-10T07:00:02.015Z,15.64
2023-04-10T07:02:31.187Z,15.62
2023-04-10T07:04:59.424Z,15.63
2023-04-10T07:07:30.038Z,15.65
2023-04-10T07:09:58.701Z,15.68
2023-04-10T07:12:29.438Z,15.70
2023-04-10T07:14:57.502Z,15.67
2023-04-10T07:17:26.231Z,15.67
2023-04-10T07:19:58.992Z,15.63
2023-04-10T07:22:31.534Z,15.64
2023-04-10T07:25:01.651Z,15.64
2023-04-10T07:27:31.369Z,15.67
2023-04-10T07:29:59.773Z,15.72
2023-04-10T07:32:28.525Z,15.75
2023-04-10T07:34:59.694Z,15.73
2023-04-10T07:37:27.848Z,15.69
2023-04-10T07:39:56.319Z,15.75
2023-04-10T07:42:25.156Z,15.77
2023-04-10T07:44:54.834Z,15.84
2023-04-10T07:47:25.324Z,15.89
2023-04-10T07:49:53.654Z,15.86
2023-04-10T07:52:21.699Z,15.84
2023-04-10T07:55:05.248Z,15.75
2023-04-10T07:57:33.632Z,15.78
2023-04-10T08:00:06.984Z,15.86
2023-04-10T08:02:37.560Z,15.95
2023-04-10T08:05:06.324Z,16.07
2023-04-10T08:07:36.567Z,16.13
2023-04-10T08:10:04.950Z,16.23
2023-04-10T08:12:38.362Z,16.31
2023-04-10T08:15:09.041Z,16.39
2023-04-10T08:17:39.832Z,16.50
2023-04-10T08:20:13.791Z,16.57
2023-04-10T08:22:42.903Z,16.64
2023-04-10T08:25:11.704Z,16.72
2023-04-10T08:27:40.514Z,16.73
2023-04-10T08:30:11.107Z,16.80
2023-04-10T08:32:42.688Z,16.81
2023-04-10T08:35:11.049Z,16.86
2023-04-10T08:37:39.342Z,16.89
2023-04-10T08:40:08.612Z,16.86
2023-04-10T08:42:37.568Z,16.82
2023-04-10T08:45:06.095Z,16.80
2023-04-10T08:47:37.998Z,16.75
2023-04-10T08:50:09.044Z,16.77
2023-04-10T08:52:44.952Z,16.73
2023-04-10T08:55:17.357Z,16.70
2023-04-10T08:57:54.363Z,16.67
2023-04-10T09:00:31.652Z,16.69
2023-04-10T09:03:03.152Z,16.67
2023-04-10T09:05:31.781Z,16.76
2023-04-10T09:07:59.944Z,16.81
2023-04-10T09:10:28.230Z,16.83
2023-04-10T09:12:56.771Z,16.88
2023-04-10T09:15:25.137Z,16.95
2023-04-10T09:17:58.018Z,17.04
2023-04-10T09:20:30.019Z,17.10
2023-04-10T09:22:58.575Z,17.14
2023-04-10T09:25:34.934Z,17.25
2023-04-10T09:28:09.329Z,17.33
2023-04-10T09:30:40.604Z,17.40
2023-04-10T09:33:27.602Z,17.37
2023-04-10T09:36:00.048Z,17.29
2023-04-10T09:38:28.135Z,17.34
2023-04-10T09:41:08.020Z,17.29
2023-04-10T09:43:36.711Z,17.36
2023-04-10T09:46:05.092Z,17.33
2023-04-10T09:48:33.182Z,17.32
2023-04-10T09:51:03.289Z,17.33
2023-04-10T09:53:31.596Z,17.35
2023-04-10T09:56:00.086Z,17.36
2023-04-10T09:58:34.880Z,17.37
2023-04-10T10:01:03.252Z,17.41
2023-04-10T10:03:31.607Z,17.45
2023-04-10T10:06:02.367Z,17.40
2023-04-10T10:08:34.882Z,17.40
2023-04-10T10:11:10.208Z,17.40
2023-04-10T10:13:45.757Z,17.46
2023-04-10T10:16:19.410Z,17.45
2023-04-10T10:18:57.849Z,17.35
2023-04-10T10:21:28.377Z,17.32
2023-04-10T10:24:00.476Z,17.45
2023-04-10T10:26:29.514Z,17.53
2023-04-10T10:28:59.394Z,17.44
2023-04-10T10:31:32.747Z,17.56
2023-04-10T10:34:05.742Z,17.59
2023-04-10T10:36:33.963Z,17.61
2023-04-10T10:39:18.755Z,17.61
2023-04-10T10:41:54.452Z,17.63
2023-04-10T10:44:31.237Z,17.64
2023-04-10T10:47:08.798Z,17.56
2023-04-10T10:49:57.431Z,17.41
2023-04-10T10:52:48.177Z,17.42
2023-04-10T10:55:36.247Z,17.38
2023-04-10T10:58:08.253Z,17.43
2023-04-10T11:01:10.771Z,17.37
2023-04-10T11:03:39.649Z,17.35
2023-04-10T11:06:09.886Z,17.32
2023-04-10T11:08:46.160Z,17.21
2023-04-10T11:11:18.745Z,17.17
2023-04-10T11:14:19.187Z,17.15
2023-04-10T11:16:49.008Z,17.12
2023-04-10T11:19:22.732Z,17.09
2023-04-10T11:22:09.331Z,17.10
2023-04-10T11:24:54.237Z,17.11
2023-04-10T11:27:44.947Z,17.12
2023-04-10T11:30:35.679Z,17.18
2023-04-10T11:33:05.588Z,17.07
2023-04-10T11:35:34.902Z,17.11
2023-04-10T11:38:17.336Z,17.08
2023-04-10T11:40:55.980Z,17.14
2023-04-10T11:43:25.656Z,17.22
2023-04-10T11:46:01.677Z,17.32
2023-04-10T11:48:30.507Z,17.36
2023-04-10T11:51:00.141Z,17.47
2023-04-10T11:53:30.421Z,17.43
2023-04-10T11:55:59.006Z,17.51
2023-04-10T11:58:30.684Z,17.60
2023-04-10T12:01:03.070Z,17.72
2023-04-10T12:03:40.198Z,17.77
2023-04-10T12:06:10.784Z,17.91
2023-04-10T12:08:40.488Z,18.06
2023-04-10T12:11:10.162Z,18.11
2023-04-10T12:13:40.295Z,18.17
2023-04-10T12:16:12.037Z,18.15
2023-04-10T12:18:40.643Z,18.05
2023-04-10T12:21:09.342Z,17.97
2023-04-10T12:23:40.232Z,17.98
2023-04-10T12:26:14.358Z,17.93
2023-04-10T12:28:52.373Z,17.88
2023-04-10T12:31:28.275Z,17.87
2023-04-10T12:33:58.125Z,17.90
2023-04-10T12:36:29.436Z,17.89
2023-04-10T12:38:58.357Z,17.84
2023-04-10T12:41:27.706Z,17.80
2023-04-10T12:44:10.541Z,17.67
2023-04-10T12:46:39.185Z,17.69
2023-04-10T12:49:11.703Z,17.73
2023-04-10T12:51:43.614Z,17.92
2023-04-10T12:54:12.403Z,18.00
2023-04-10T12:56:44.089Z,18.20
2023-04-10T12:59:13.679Z,18.32
2023-04-10T13:01:41.894Z,18.36
2023-04-10T13:04:10.103Z,18.35
2023-04-10T13:06:44.327Z,18.32
2023-04-10T13:09:13.308Z,18.36
2023-04-10T13:11:45.915Z,18.43
2023-04-10T13:14:17.299Z,18.42
2023-04-10T13:16:45.464Z,18.45
2023-04-10T13:19:14.154Z,18.57
2023-04-10T13:21:42.129Z,18.69
2023-04-10T13:24:10.410Z,18.87
2023-04-10T13:26:38.527Z,18.94
2023-04-10T13:29:07.055Z,18.94
2023-04-10T13:31:36.774Z,18.93
2023-04-10T13:34:06.150Z,18.99
2023-04-10T13:36:37.483Z,18.97
2023-04-10T13:39:05.902Z,18.93
2023-04-10T13:41:34.155Z,18.96
2023-04-10T13:44:02.329Z,19.06
2023-04-10T13:46:30.327Z,19.17
2023-04-10T13:48:59.988Z,19.07
2023-04-10T13:51:29.821Z,18.91
2023-04-10T13:53:58.031Z,18.90
2023-04-10T13:56:26.781Z,19.09
2023-04-10T13:58:55.217Z,19.17
2023-04-10T14:01:26.565Z,19.17
2023-04-10T14:03:54.764Z,19.32
2023-04-10T14:06:37.028Z,19.37
2023-04-10T14:09:15.538Z,19.56
2023-04-10T14:11:59.559Z,19.63
2023-04-10T14:14:28.067Z,19.90
2023-04-10T14:16:57.637Z,20.20
2023-04-10T14:19:28.346Z,20.31
2023-04-10T14:22:09.058Z,20.36
2023-04-10T14:24:37.323Z,20.31
2023-04-10T14:27:06.933Z,20.56
2023-04-10T14:29:42.750Z,20.65
2023-04-10T14:32:23.865Z,20.62
2023-04-10T14:34:52.773Z,20.97
2023-04-10T14:37:22.550Z,21.01
2023-04-10T14:39:51.764Z,20.91
2023-04-10T14:42:19.990Z,20.65
2023-04-10T14:44:48.852Z,20.69
2023-04-10T14:47:17.495Z,20.69
2023-04-10T14:49:52.049Z,20.51
2023-04-10T14:52:21.935Z,20.64
2023-04-10T14:54:51.432Z,20.62
2023-04-10T14:57:19.643Z,20.83
2023-04-10T14:59:47.879Z,20.92
2023-04-10T15:02:16.382Z,21.09
2023-04-10T15:04:47.322Z,21.21
2023-04-10T15:07:16.092Z,21.28
2023-04-10T15:09:46.770Z,21.42
2023-04-10T15:12:15.172Z,21.70
2023-04-10T15:14:43.558Z,21.64
2023-04-10T15:17:11.563Z,21.39
2023-04-10T15:19:39.970Z,21.28
2023-04-10T15:22:15.177Z,21.10
2023-04-10T15:24:49.965Z,20.77
2023-04-10T15:27:22.486Z,20.75
2023-04-10T15:29:50.955Z,20.48
2023-04-10T15:32:19.462Z,20.55
2023-04-10T15:34:47.608Z,20.90
2023-04-10T15:37:15.971Z,21.18
2023-04-10T15:39:44.076Z,21.58
2023-04-10T15:42:12.780Z,21.69
2023-04-10T15:44:42.505Z,21.73
2023-04-10T15:47:10.572Z,21.63
2023-04-10T15:49:39.425Z,21.78
2023-04-10T15:52:08.031Z,21.95
2023-04-10T15:54:36.619Z,21.89
2023-04-10T15:57:05.038Z,21.43
2023-04-10T15:59:34.474Z,20.89
2023-04-10T16:02:04.571Z,20.15
2023-04-10T16:04:32.944Z,19.61
2023-04-10T16:07:02.750Z,19.75
2023-04-10T16:09:31.495Z,19.60
2023-04-10T16:11:59.805Z,19.82
2023-04-10T16:14:28.224Z,20.16
2023-04-10T16:16:59.446Z,20.83
2023-04-10T16:19:31.479Z,21.21
2023-04-10T16:22:00.357Z,21.50
2023-04-10T16:24:30.758Z,21.53
2023-04-10T16:26:59.018Z,21.57
2023-04-10T16:29:27.398Z,21.49
2023-04-10T16:31:56.116Z,21.50
2023-04-10T16:34:37.175Z,21.25
2023-04-10T16:37:07.126Z,20.83
2023-04-10T16:39:35.644Z,20.44
2023-04-10T16:42:04.967Z,20.30
2023-04-10T16:44:33.894Z,19.91
2023-04-10T16:47:02.278Z,19.91
2023-04-10T16:49:30.913Z,20.03
2023-04-10T16:51:59.066Z,19.92
2023-04-10T16:54:28.778Z,19.49
2023-04-10T16:56:57.209Z,19.00
2023-04-10T16:59:25.853Z,18.58
2023-04-10T17:01:55.465Z,18.29
2023-04-10T17:04:24.056Z,18.22
2023-04-10T17:06:52.572Z,18.46
2023-04-10T17:09:21.562Z,18.45
2023-04-10T17:11:53.446Z,18.49
2023-04-10T17:14:21.860Z,18.79
2023-04-10T17:16:50.003Z,18.94
2023-04-10T17:19:18.679Z,19.35
2023-04-10T17:21:46.682Z,19.58
2023-04-10T17:24:14.722Z,19.90
2023-04-10T17:26:42.929Z,20.22
2023-04-10T17:29:12.462Z,20.29
2023-04-10T17:31:41.805Z,20.28
2023-04-10T17:34:10.086Z,20.27
2023-04-10T17:36:39.343Z,19.57
2023-04-10T17:39:07.897Z,18.85
2023-04-10T17:41:36.075Z,18.30
2023-04-10T17:44:05.786Z,17.98
2023-04-10T17:46:35.847Z,17.93
2023-04-10T17:49:07.904Z,17.93
2023-04-10T17:51:35.972Z,17.81
2023-04-10T17:54:33.852Z,17.78
2023-04-10T17:57:03.824Z,17.85
2023-04-10T17:59:32.345Z,17.68
2023-04-10T18:02:02.579Z,17.59
2023-04-10T18:04:32.013Z,17.45
2023-04-10T18:07:00.346Z,17.27
2023-04-10T18:09:32.779Z,17.32
2023-04-10T18:12:01.554Z,17.46
2023-04-10T18:14:33.138Z,17.55
2023-04-10T18:17:03.000Z,17.33
2023-04-10T18:19:31.633Z,17.18
2023-04-10T18:22:02.602Z,16.96
2023-04-10T18:24:31.000Z,16.72
2023-04-10T18:26:59.159Z,16.44
2023-04-10T18:29:27.616Z,16.19
2023-04-10T18:31:55.849Z,16.05
2023-04-10T18:34:25.843Z,16.00
2023-04-10T18:36:55.738Z,15.95
2023-04-10T18:39:24.162Z,15.89
2023-04-10T18:41:52.299Z,15.84
2023-04-10T18:44:20.358Z,15.86
2023-04-10T18:46:53.985Z,15.74
2023-04-10T18:49:31.316Z,15.68
2023-04-10T18:51:59.382Z,15.56
2023-04-10T18:54:28.212Z,15.46
2023-04-10T18:56:57.990Z,15.35
2023-04-10T18:59:26.129Z,15.27
2023-04-10T19:01:54.292Z,15.25
2023-04-10T19:04:22.523Z,15.18
2023-04-10T19:06:52.117Z,15.17
2023-04-10T19:09:20.260Z,15.14
2023-04-10T19:11:48.392Z,15.10
2023-04-10T19:14:16.608Z,15.09
2023-04-10T19:16:44.806Z,14.99
2023-04-10T19:19:13.097Z,14.99
2023-04-10T19:21:41.652Z,14.91
2023-04-10T19:24:12.549Z,14.86
2023-04-10T19:26:41.204Z,14.88
2023-04-10T19:29:10.115Z,14.85
2023-04-10T19:31:38.179Z,14.87
2023-04-10T19:34:09.397Z,14.83
2023-04-10T19:36:38.562Z,14.81
2023-04-10T19:39:06.910Z,14.77
2023-04-10T19:41:41.809Z,14.76
2023-04-10T19:44:10.792Z,14.74
2023-04-10T19:46:39.134Z,14.72
2023-04-10T19:49:11.642Z,14.65
2023-04-10T19:51:39.792Z,14.62
2023-04-10T19:54:08.383Z,14.54
2023-04-10T19:56:38.308Z,14.53
2023-04-10T19:59:06.532Z,14.50
2023-04-10T20:01:35.590Z,14.52
2023-04-10T20:04:03.832Z,14.53
2023-04-10T20:06:31.995Z,14.53
2023-04-10T20:09:00.134Z,14.47
2023-04-10T20:11:30.775Z,14.44
2023-04-10T20:14:00.410Z,14.46
2023-04-10T20:16:28.625Z,14.40
2023-04-10T20:18:57.513Z,14.42
2023-04-10T20:21:26.208Z,14.44
2023-04-10T20:23:57.762Z,14.43
2023-04-10T20:26:26.983Z,14.48
2023-04-10T20:28:55.593Z,14.49
2023-04-10T20:31:25.847Z,14.49
2023-04-10T20:33:54.558Z,14.54
2023-04-10T20:36:22.920Z,14.56
2023-04-10T20:38:51.135Z,14.57
2023-04-10T20:41:19.329Z,14.54
2023-04-10T20:43:47.686Z,14.50
2023-04-10T20:46:15.852Z,14.52
2023-04-10T20:48:45.526Z,14.52
2023-04-10T20:51:13.821Z,14.51
2023-04-10T20:53:42.014Z,14.45
2023-04-10T20:56:10.910Z,14.43
2023-04-10T20:58:39.148Z,14.41
2023-04-10T21:01:10.556Z,14.39
2023-04-10T21:03:39.121Z,14.41
2023-04-10T21:06:11.412Z,14.34
2023-04-10T21:08:39.719Z,14.32
2023-04-10T21:11:08.596Z,14.28
2023-04-10T21:13:38.495Z,14.28
2023-04-10T21:16:08.207Z,14.29
2023-04-10T21:18:36.474Z,14.31
2023-04-10T21:21:07.168Z,14.27
2023-04-10T21:23:41.567Z,14.27
2023-04-10T21:26:10.278Z,14.27
2023-04-10T21:28:38.671Z,14.26
2023-04-10T21:31:06.850Z,14.24
2023-04-10T21:33:34.925Z,14.26
2023-04-10T21:36:02.989Z,14.20
2023-04-10T21:38:31.147Z,14.24
2023-04-10T21:41:03.584Z,14.21
2023-04-10T21:43:31.990Z,14.15
2023-04-10T21:46:02.169Z,14.17
2023-04-10T21:48:31.351Z,14.17
2023-04-10T21:50:59.454Z,14.21
2023-04-10T21:53:27.604Z,14.25
2023-04-10T21:55:55.701Z,14.20
2023-04-10T21:58:25.301Z,14.25
2023-04-10T22:00:55.171Z,14.26
2023-04-10T22:03:24.172Z,14.22
2023-04-10T22:05:52.484Z,14.22
2023-04-10T22:08:22.180Z,14.22
2023-04-10T22:10:51.404Z,14.30
2023-04-10T22:13:30.335Z,14.30
2023-04-10T22:16:02.506Z,14.33
2023-04-10T22:18:30.779Z,14.30
2023-04-10T22:20:59.230Z,14.25
2023-04-10T22:23:27.405Z,14.34
2023-04-10T22:25:55.508Z,14.36
2023-04-10T22:28:23.789Z,14.31
2023-04-10T22:30:51.876Z,14.30
2023-04-10T22:33:21.521Z,14.28
2023-04-10T22:35:49.524Z,14.35
2023-04-10T22:38:17.610Z,14.47
2023-04-10T22:40:45.688Z,14.40
2023-04-10T22:43:13.828Z,14.45
2023-04-10T22:45:43.573Z,14.48
2023-04-10T22:48:11.773Z,14.47
2023-04-10T22:50:41.370Z,14.47
2023-04-10T22:53:11.670Z,14.51
2023-04-10T22:55:40.125Z,14.54
2023-04-10T22:58:08.902Z,14.54
2023-04-10T23:00:37.158Z,14.53
2023-04-10T23:03:05.534Z,14.49
2023-04-10T23:05:34.385Z,14.51
2023-04-10T23:08:04.093Z,14.53
2023-04-10T23:10:32.138Z,14.47
2023-04-10T23:13:00.174Z,14.54
2023-04-10T23:15:28.151Z,14.50
2023-04-10T23:17:56.424Z,14.48
2023-04-10T23:20:24.619Z,14.43
2023-04-10T23:22:52.976Z,14.46
2023-04-10T23:25:22.895Z,14.43
2023-04-10T23:27:52.689Z,14.44
2023-04-10T23:30:20.729Z,14.45
2023-04-10T23:32:48.930Z,14.48
2023-04-10T23:35:17.258Z,14.43
2023-04-10T23:37:45.364Z,14.42
2023-04-10T23:40:14.225Z,14.45
2023-04-10T23:42:45.230Z,14.42
2023-04-10T23:45:13.971Z,14.43
2023-04-10T23:47:42.048Z,14.46
2023-04-10T23:50:11.081Z,14.44
2023-04-10T23:52:39.129Z,14.51
2023-04-10T23:55:08.093Z,14.47
2023-04-10T23:57:36.170Z,14.53
